Terminal Aerodrome Forecast
Issued by NWS Cleveland, OH

Home | Current Version | Previous Version | Text Only | Print | Product List | Glossary Off
Versions: 1 2 3 4 5 6 7 8 9 10 11 12 13 14 15 16 17 18 19 20 21 22

000
FTUS41 KCLE 271700
TAFERI
TAF
KERI 271726Z 2718/2818 28007KT P6SM BKN025
      TEMPO 2718/2722 SCT025
     FM272200 25006KT P6SM SCT250
     FM281400 20006KT P6SM BKN250=

USA.gov is the U.S. government's official web portal to all federal, state and local government web resources and services.